Scottville, North Carolina
Current Conditions -  °F | °C
As of 1:15 PM on Monday 26 Jan 2015 (Local Time) from KGEV Reporting Station
Overcast Overcast  
Wind Chill: 29°   Ceiling: 2000
Heat Index: 38°   Visibility: 10mi
Dew Point: 28°   Wind: 15mph
Humidity: 68%   Direction: 270°W
Pressure: 29.6"   Gusts: 20mph
Location:  36.48°N, 81.31°W
Report Text: KGEV 261815Z AUTO 27013G17KT 10SM BKN020 BKN025 OVC031 03/M02 A2960 RMK AO2 T00341020
Loading
Personal Weather Stations






























Interactive Weather Map New forecast layout! Learn more

10-Day Weather Forecast

Advertisements
Track Severe Weather on mobile